Time;durP1;ratioP1;P1;durP2;ratioP2;P2;SDS_P1;SDS_P2;PMS_P1;PMS_P2;Temp;Humidity;BMP_temperature;BMP_pressure;BME280_temperature;BME280_humidity;BME280_pressure;Samples;Min_cycle;Max_cycle;Signal;HPM_P1;HPM_P2
2021/10/23 00:00:35;;;;;;;33.50;16.50;;;;;;;12.45;62.12;99222.71;27512;1217;3026808;-66
2021/10/23 00:03:03;;;;;;;35.40;15.80;;;;;;;12.39;62.14;99219.77;27436;1217;3026192;-66
2021/10/23 00:05:33;;;;;;;32.40;15.90;;;;;;;12.36;62.30;99214.20;27350;1217;3025706;-66
2021/10/23 00:08:02;;;;;;;29.40;15.30;;;;;;;12.37;62.19;99218.13;27347;1217;3026125;-67
2021/10/23 00:10:32;;;;;;;31.30;15.40;;;;;;;12.31;62.58;99213.48;27396;1217;3027432;-66
2021/10/23 00:13:01;;;;;;;30.50;15.60;;;;;;;12.34;62.56;99205.53;27416;1217;3027353;-65
2021/10/23 00:15:30;;;;;;;35.50;16.20;;;;;;;12.30;62.53;99199.73;27331;1217;3055229;-67
2021/10/23 00:18:00;;;;;;;29.20;14.60;;;;;;;12.26;62.61;99194.71;27342;1210;3026854;-71
2021/10/23 00:20:29;;;;;;;30.90;16.30;;;;;;;12.28;62.42;99189.66;27326;1217;3027038;-66
2021/10/23 00:22:58;;;;;;;27.40;14.80;;;;;;;12.28;62.47;99185.29;27296;1217;3056054;-66
2021/10/23 00:25:27;;;;;;;29.30;14.30;;;;;;;12.28;62.33;99181.23;27206;1217;3026408;-69
2021/10/23 00:27:57;;;;;;;34.70;15.10;;;;;;;12.17;62.86;99182.73;27243;1217;3025875;-64
2021/10/23 00:30:26;;;;;;;29.50;14.00;;;;;;;12.11;62.87;99179.84;27242;1217;3054909;-66
2021/10/23 00:33:01;;;;;;;32.80;15.10;;;;;;;12.13;62.91;99179.14;27211;1217;3026576;-69
2021/10/23 00:35:30;;;;;;;27.60;14.30;;;;;;;12.10;63.08;99179.15;27300;1217;3051761;-69
2021/10/23 00:38:01;;;;;;;34.70;15.70;;;;;;;12.06;63.11;99180.81;27233;1217;3026302;-70
2021/10/23 00:40:30;;;;;;;31.80;15.20;;;;;;;11.98;63.38;99179.00;27214;1217;3026994;-66
2021/10/23 00:43:00;;;;;;;44.60;15.70;;;;;;;11.91;63.47;99176.74;27254;1217;3026323;-75
2021/10/23 00:45:28;;;;;;;34.10;14.30;;;;;;;11.91;63.71;99172.56;27213;1218;3054839;-73
2021/10/23 00:47:57;;;;;;;36.10;14.30;;;;;;;11.87;63.77;99169.51;27190;1217;3026166;-70
2021/10/23 00:50:26;;;;;;;36.90;15.00;;;;;;;11.88;63.67;99167.02;27244;1217;3051070;-67
2021/10/23 00:52:55;;;;;;;31.00;15.30;;;;;;;11.77;64.02;99168.52;27223;1209;3026158;-73
2021/10/23 00:55:24;;;;;;;29.20;14.90;;;;;;;11.74;64.11;99166.23;27207;1217;3051400;-67
2021/10/23 00:57:53;;;;;;;25.10;15.40;;;;;;;11.78;64.22;99164.77;27215;1217;3027988;-68
2021/10/23 01:00:38;;;;;;;33.00;15.90;;;;;;;11.69;64.40;99168.53;27208;1217;3048362;-69
2021/10/23 01:03:07;;;;;;;27.70;13.70;;;;;;;11.62;64.63;99165.17;27214;1217;3026397;-66
2021/10/23 01:05:36;;;;;;;28.70;14.50;;;;;;;11.65;64.47;99164.22;27235;1217;3027626;-63
2021/10/23 01:08:24;;;;;;;33.70;15.60;;;;;;;11.47;65.32;99171.73;27231;1217;3049126;-66
2021/10/23 01:10:54;;;;;;;24.00;12.70;;;;;;;11.51;65.43;99174.87;27253;1217;3026420;-72
2021/10/23 01:13:23;;;;;;;36.70;14.60;;;;;;;11.99;63.92;99178.14;27231;1217;3068711;-68
2021/10/23 01:15:55;;;;;;;36.40;16.10;;;;;;;12.40;62.54;99176.87;27260;1217;3026515;-68
2021/10/23 01:18:24;;;;;;;26.20;14.50;;;;;;;12.35;62.11;99178.45;27223;1217;3026355;-71
2021/10/23 01:20:54;;;;;;;27.30;14.40;;;;;;;12.26;62.49;99175.23;27249;1217;3069898;-71
2021/10/23 01:23:23;;;;;;;34.80;15.60;;;;;;;12.18;62.66;99180.84;27231;1217;3026421;-68
2021/10/23 01:25:52;;;;;;;30.10;16.00;;;;;;;12.04;63.03;99181.02;27219;1217;3054155;-66
2021/10/23 01:28:21;;;;;;;33.30;15.30;;;;;;;11.95;63.21;99179.33;27190;1217;3026437;-68
2021/10/23 01:30:54;;;;;;;31.90;15.30;;;;;;;11.66;64.21;99175.26;27196;1217;3026095;-69
2021/10/23 01:33:43;;;;;;;33.90;15.60;;;;;;;11.52;64.84;99167.08;27224;1217;3052336;-70
2021/10/23 01:36:16;;;;;;;32.10;15.20;;;;;;;11.52;64.58;99162.85;27209;1217;3026104;-65
2021/10/23 01:39:09;;;;;;;31.90;16.50;;;;;;;11.45;65.06;99162.09;27244;1217;3026086;-70
2021/10/23 01:41:39;;;;;;;34.00;15.70;;;;;;;11.26;65.68;99167.80;27174;1217;3049813;-70
2021/10/23 01:44:09;;;;;;;30.10;15.60;;;;;;;11.14;66.14;99174.23;27205;1217;3026373;-71
2021/10/23 01:46:39;;;;;;;45.50;17.30;;;;;;;11.16;66.23;99169.70;27249;1217;3028465;-67
2021/10/23 01:49:08;;;;;;;26.00;13.10;;;;;;;11.08;66.56;99171.46;27236;1217;3027401;-68
2021/10/23 01:51:38;;;;;;;28.50;12.50;;;;;;;11.67;65.73;99167.94;27318;1218;3026585;-75
2021/10/23 01:54:09;;;;;;;33.60;14.20;;;;;;;12.04;63.57;99170.83;27205;1217;3025729;-68
2021/10/23 01:56:39;;;;;;;32.60;15.60;;;;;;;12.00;63.69;99175.49;27219;1217;3027362;-73
2021/10/23 01:59:08;;;;;;;33.20;16.40;;;;;;;11.86;64.04;99172.08;27272;1217;3025996;-72
2021/10/23 02:01:38;;;;;;;31.10;15.60;;;;;;;11.57;65.09;99167.77;27265;1217;3025777;-66
2021/10/23 02:04:07;;;;;;;34.70;15.50;;;;;;;11.42;65.73;99159.72;27239;1217;3026122;-65
2021/10/23 02:06:36;;;;;;;25.80;15.70;;;;;;;11.34;66.09;99162.14;27202;1217;3026385;-68
2021/10/23 02:09:20;;;;;;;30.20;16.00;;;;;;;11.00;67.57;99173.23;27195;1217;3052473;-67
2021/10/23 02:11:49;;;;;;;33.50;16.50;;;;;;;10.89;68.04;99176.76;27284;1217;3025986;-71
2021/10/23 02:14:18;;;;;;;31.90;15.20;;;;;;;10.77;68.61;99178.39;27272;1217;3059088;-67
2021/10/23 02:16:47;;;;;;;32.50;14.20;;;;;;;10.71;69.01;99177.89;27204;1217;3026538;-68
2021/10/23 02:19:20;;;;;;;29.20;13.40;;;;;;;11.36;67.82;99179.55;27207;1217;3054436;-63
2021/10/23 02:21:49;;;;;;;26.40;14.70;;;;;;;11.82;65.97;99179.52;27227;1217;3025824;-74
2021/10/23 02:24:18;;;;;;;27.60;14.60;;;;;;;11.85;65.72;99181.99;27236;1217;3025822;-69
2021/10/23 02:26:47;;;;;;;28.80;14.50;;;;;;;11.55;66.67;99183.14;27200;1217;3053662;-75
2021/10/23 02:29:16;;;;;;;33.50;16.50;;;;;;;11.48;67.02;99186.65;27240;1210;3026278;-77
2021/10/23 02:31:46;;;;;;;28.80;14.90;;;;;;;11.19;68.37;99185.80;27208;1217;3053503;-72
2021/10/23 02:34:15;;;;;;;33.40;16.60;;;;;;;11.14;68.96;99193.86;27220;1217;3025868;-62
2021/10/23 02:36:44;;;;;;;34.10;16.80;;;;;;;11.06;69.25;99186.98;27201;1217;3048187;-66
2021/10/23 02:39:14;;;;;;;30.50;12.90;;;;;;;10.88;70.38;99187.70;27205;1217;3027833;-68
2021/10/23 02:41:44;;;;;;;24.30;13.80;;;;;;;11.32;69.08;99190.15;27195;1216;3028712;-62
2021/10/23 02:44:13;;;;;;;27.30;13.70;;;;;;;11.68;68.02;99195.08;27233;1217;3026056;-72
2021/10/23 02:46:42;;;;;;;28.90;15.60;;;;;;;11.80;67.60;99192.48;27217;1217;3026422;-69
2021/10/23 02:49:11;;;;;;;32.30;15.70;;;;;;;11.50;68.70;99192.98;27312;1217;3054213;-73
2021/10/23 02:51:40;;;;;;;38.20;17.10;;;;;;;11.31;69.42;99199.33;27236;1217;3026528;-70
2021/10/23 02:54:11;;;;;;;33.00;17.20;;;;;;;11.12;70.42;99201.35;27251;1217;3051521;-67
2021/10/23 02:56:40;;;;;;;33.10;17.30;;;;;;;11.04;70.69;99203.79;27169;1217;3026625;-70
2021/10/23 02:59:09;;;;;;;29.20;13.60;;;;;;;10.97;71.56;99201.23;27194;1217;3026319;-67
2021/10/23 03:01:38;;;;;;;29.20;14.30;;;;;;;11.37;70.58;99197.38;27183;1209;3029018;-63
2021/10/23 03:04:08;;;;;;;32.20;15.90;;;;;;;11.63;69.36;99193.29;27222;1217;3054048;-74
2021/10/23 03:06:37;;;;;;;36.30;17.00;;;;;;;11.75;68.88;99196.87;27217;1217;3025908;-68
2021/10/23 03:09:06;;;;;;;35.50;16.10;;;;;;;11.50;69.78;99193.84;27220;1217;3026800;-72
2021/10/23 03:11:35;;;;;;;30.20;16.30;;;;;;;11.24;70.68;99187.70;27215;1217;3051580;-67
2021/10/23 03:14:04;;;;;;;31.90;16.70;;;;;;;11.09;71.24;99187.13;27220;1210;3025978;-73
2021/10/23 03:16:33;;;;;;;33.70;16.90;;;;;;;10.93;72.03;99189.98;27265;1216;3051664;-70
2021/10/23 03:19:23;;;;;;;25.80;14.60;;;;;;;10.94;72.38;99186.54;27228;1217;3052516;-69
2021/10/23 03:21:52;;;;;;;30.80;15.80;;;;;;;11.34;71.47;99185.98;27208;1210;3026814;-64
2021/10/23 03:24:22;;;;;;;36.40;17.40;;;;;;;11.43;70.84;99183.98;27243;1217;3026419;-75
2021/10/23 03:26:50;;;;;;;38.10;17.60;;;;;;;11.28;71.44;99189.73;27229;1218;3026404;-62
2021/10/23 03:29:20;;;;;;;37.40;17.20;;;;;;;10.98;72.76;99189.29;27196;1217;3058027;-73
2021/10/23 03:31:50;;;;;;;34.00;17.60;;;;;;;10.86;73.37;99190.95;27239;1217;3028871;-65
2021/10/23 03:34:20;;;;;;;27.40;13.90;;;;;;;10.77;74.01;99186.09;27241;1218;3028055;-69
2021/10/23 03:36:49;;;;;;;31.20;16.20;;;;;;;11.27;72.58;99183.45;27253;1217;3025849;-73
2021/10/23 03:39:18;;;;;;;31.40;15.80;;;;;;;11.42;72.19;99177.77;27217;1216;3048747;-71
2021/10/23 03:41:47;;;;;;;27.20;16.10;;;;;;;11.37;72.15;99174.38;27234;1217;3028319;-68
2021/10/23 03:44:16;;;;;;;33.50;17.40;;;;;;;11.37;72.12;99169.34;27209;1217;3054944;-72
2021/10/23 03:46:45;;;;;;;31.90;16.80;;;;;;;11.25;72.55;99171.16;27216;1217;3026356;-77
2021/10/23 03:49:14;;;;;;;34.60;16.30;;;;;;;11.16;73.04;99174.39;27215;1216;3051492;-64
2021/10/23 03:51:44;;;;;;;27.70;14.00;;;;;;;11.05;73.69;99172.86;27228;1217;3026899;-70
2021/10/23 03:54:13;;;;;;;33.40;15.40;;;;;;;11.29;73.22;99174.06;27215;1217;3029216;-67
2021/10/23 03:56:42;;;;;;;35.70;17.40;;;;;;;11.60;72.34;99169.84;27220;1217;3053688;-66
2021/10/23 03:59:12;;;;;;;31.40;16.50;;;;;;;11.50;72.43;99175.60;27249;1217;3026054;-68
2021/10/23 04:01:41;;;;;;;27.60;16.40;;;;;;;11.36;72.99;99172.22;27187;1217;3054767;-68
2021/10/23 04:04:11;;;;;;;32.90;17.70;;;;;;;11.21;73.49;99180.20;27243;1216;3027774;-72
2021/10/23 04:06:43;;;;;;;31.50;17.20;;;;;;;11.12;73.98;99175.91;27244;1216;3025954;-71
2021/10/23 04:09:12;;;;;;;28.70;13.20;;;;;;;10.99;75.00;99174.31;27192;1216;3028406;-67
2021/10/23 04:11:41;;;;;;;26.80;15.10;;;;;;;11.43;73.97;99172.08;27193;1217;3054265;-73
2021/10/23 04:14:11;;;;;;;28.50;14.80;;;;;;;11.94;71.78;99172.94;27250;1217;3026107;-67
2021/10/23 04:17:00;;;;;;;34.30;17.20;;;;;;;11.64;72.55;99170.77;27258;1217;3049656;-69
2021/10/23 04:19:29;;;;;;;30.50;17.30;;;;;;;11.49;72.98;99169.71;27249;1217;3026357;-68
2021/10/23 04:21:58;;;;;;;30.60;17.30;;;;;;;11.22;73.87;99171.21;27239;1217;3058048;-65
2021/10/23 04:24:28;;;;;;;24.70;13.50;;;;;;;11.22;74.27;99179.83;27258;1217;3025876;-66
2021/10/23 04:27:00;;;;;;;28.40;14.00;;;;;;;11.79;72.80;99206.88;27270;1217;3026561;-68
2021/10/23 04:29:29;;;;;;;26.80;15.30;;;;;;;12.16;71.13;99215.98;27231;1209;3026686;-67
2021/10/23 04:31:58;;;;;;;30.50;15.30;;;;;;;12.15;70.77;99216.77;27245;1217;3051533;-71
2021/10/23 04:34:27;;;;;;;27.50;15.30;;;;;;;12.08;70.73;99218.16;27271;1217;3026608;-69
2021/10/23 04:36:56;;;;;;;33.60;17.80;;;;;;;11.72;71.89;99223.40;27229;1217;3058002;-64
2021/10/23 04:39:25;;;;;;;30.60;17.70;;;;;;;11.35;73.30;99228.70;27211;1217;3026753;-65
2021/10/23 04:41:55;;;;;;;27.80;13.70;;;;;;;11.30;73.63;99226.41;27251;1210;3026322;-71
2021/10/23 04:44:24;;;;;;;30.60;15.10;;;;;;;11.80;72.63;99227.58;27228;1217;3055558;-66
2021/10/23 04:46:53;;;;;;;30.70;16.70;;;;;;;12.12;71.16;99230.45;27232;1217;3026781;-67
2021/10/23 04:49:22;;;;;;;32.30;17.20;;;;;;;11.96;71.58;99235.09;27232;1218;3050488;-66
2021/10/23 04:51:52;;;;;;;35.00;16.70;;;;;;;11.94;71.46;99241.67;27213;1217;3025755;-74
2021/10/23 04:54:21;;;;;;;32.00;18.20;;;;;;;11.83;71.76;99244.92;27260;1211;3026448;-73
2021/10/23 04:56:50;;;;;;;30.80;18.10;;;;;;;11.70;72.05;99245.33;27348;1217;3053872;-63
2021/10/23 04:59:19;;;;;;;32.90;14.60;;;;;;;11.55;72.79;99246.14;27313;1218;3027282;-73
2021/10/23 05:01:48;;;;;;;32.00;15.70;;;;;;;11.99;71.88;99249.26;27292;1217;3050843;-64
2021/10/23 05:04:18;;;;;;;26.90;15.80;;;;;;;12.42;70.26;99252.43;27282;1217;3026383;-67
2021/10/23 05:06:49;;;;;;;28.10;16.80;;;;;;;12.43;69.96;99256.38;27289;1217;3026997;-69
2021/10/23 05:09:18;;;;;;;33.10;18.00;;;;;;;12.36;69.69;99249.48;27271;1217;3028365;-71
2021/10/23 05:11:48;;;;;;;34.90;17.30;;;;;;;12.01;71.03;99250.03;27269;1216;3054715;-73
2021/10/23 05:14:19;;;;;;;39.40;18.40;;;;;;;11.82;71.67;99252.51;27243;1217;3026215;-64
2021/10/23 05:17:08;;;;;;;28.90;14.60;;;;;;;11.57;72.38;99264.04;27297;1217;3049854;-67
2021/10/23 05:19:37;;;;;;;23.80;12.90;;;;;;;11.61;72.25;99271.89;27292;1217;3025519;-68
2021/10/23 05:22:06;;;;;;;27.10;14.80;;;;;;;12.31;70.32;99276.37;27320;1217;3058772;-72
2021/10/23 05:24:35;;;;;;;32.50;17.20;;;;;;;12.39;69.52;99284.94;27303;1217;3025748;-69
2021/10/23 05:27:05;;;;;;;30.70;16.30;;;;;;;12.33;69.71;99296.23;27312;1217;3054486;-63
2021/10/23 05:29:34;;;;;;;29.40;16.10;;;;;;;12.25;69.74;99306.28;27283;1217;3028382;-72
2021/10/23 05:32:03;;;;;;;39.60;18.00;;;;;;;12.04;70.25;99314.38;27249;1216;3050852;-65
2021/10/23 05:34:33;;;;;;;31.40;17.80;;;;;;;11.88;70.70;99316.55;27387;1217;3026475;-70
2021/10/23 05:37:02;;;;;;;27.00;14.10;;;;;;;11.80;71.31;99325.17;27344;1217;3026408;-73
2021/10/23 05:39:31;;;;;;;34.60;14.70;;;;;;;12.42;70.19;99320.40;27330;1217;3053897;-63
2021/10/23 05:42:00;;;;;;;33.30;15.50;;;;;;;12.82;68.03;99320.01;27335;1217;3026342;-65
2021/10/23 05:44:47;;;;;;;34.80;19.00;;;;;;;12.76;67.83;99321.31;27328;1217;3051055;-67
2021/10/23 05:47:16;;;;;;;29.70;17.70;;;;;;;12.59;68.28;99317.79;27351;1217;3026207;-67
2021/10/23 05:49:45;;;;;;;34.50;17.90;;;;;;;12.30;68.84;99321.95;27364;1217;3067557;-73
2021/10/23 05:52:15;;;;;;;35.50;19.90;;;;;;;12.13;69.34;99323.08;27308;1217;3026669;-68
2021/10/23 05:55:02;;;;;;;43.20;22.30;;;;;;;12.15;68.78;99320.52;27326;1216;3054387;-70
2021/10/23 05:57:32;;;;;;;36.00;18.10;;;;;;;11.96;70.13;99330.06;27371;1217;3026501;-69
2021/10/23 06:00:06;;;;;;;34.30;19.00;;;;;;;12.45;68.86;99325.08;27317;1217;3026060;-68
2021/10/23 06:02:47;;;;;;;31.10;17.80;;;;;;;12.81;67.77;99342.42;27288;1217;3052396;-72
2021/10/23 06:05:16;;;;;;;40.60;23.00;;;;;;;12.68;67.51;99340.37;27317;1218;3029276;-66
2021/10/23 06:07:45;;;;;;;55.70;25.30;;;;;;;12.68;67.09;99346.11;27336;1211;3026783;-70
2021/10/23 06:10:33;;;;;;;55.30;27.60;;;;;;;12.45;67.59;99349.46;27287;1217;3053050;-68
2021/10/23 06:13:03;;;;;;;53.40;25.10;;;;;;;12.42;67.69;99346.94;27301;1218;3025930;-64
2021/10/23 06:15:32;;;;;;;58.10;27.60;;;;;;;12.32;67.58;99350.93;27333;1217;3048987;-69
2021/10/23 06:18:02;;;;;;;38.50;17.30;;;;;;;11.96;69.65;99353.57;27289;1217;3027998;-70
2021/10/23 06:20:51;;;;;;;39.70;18.40;;;;;;;12.74;67.72;99345.88;27200;1218;3067645;-72
2021/10/23 06:23:28;;;;;;;48.30;19.40;;;;;;;13.20;66.11;99343.76;27256;1217;3051405;-66
2021/10/23 06:26:01;;;;;;;40.90;19.70;;;;;;;13.36;65.07;99338.27;27266;1217;3054482;-66
2021/10/23 06:28:36;;;;;;;38.80;19.50;;;;;;;13.05;65.35;99345.92;27403;1217;3026156;-68
2021/10/23 06:31:25;;;;;;;37.60;20.80;;;;;;;12.81;65.25;99334.11;27299;1215;3049240;-67
2021/10/23 06:33:55;;;;;;;36.80;17.10;;;;;;;12.58;65.08;99346.81;27260;1217;3026862;-69
2021/10/23 06:36:24;;;;;;;42.30;21.30;;;;;;;12.70;64.57;99350.20;27331;1216;3028026;-67
2021/10/23 06:39:12;;;;;;;48.80;23.50;;;;;;;12.53;66.06;99352.84;27253;1216;3049135;-71
2021/10/23 06:41:42;;;;;;;45.40;21.00;;;;;;;12.34;66.89;99344.70;27305;1217;3026431;-79
2021/10/23 06:44:12;;;;;;;37.50;17.60;;;;;;;12.30;67.19;99333.84;27490;1216;3025836;-66
2021/10/23 06:47:01;;;;;;;27.40;16.30;;;;;;;13.11;65.24;99329.81;27272;1216;3049187;-78
2021/10/23 06:49:29;;;;;;;34.60;16.50;;;;;;;13.75;62.94;99321.45;27329;1215;3027657;-67
2021/10/23 06:51:58;;;;;;;34.30;19.10;;;;;;;13.87;60.85;99319.33;27325;1216;3070586;-70
2021/10/23 06:54:27;;;;;;;46.00;20.50;;;;;;;13.77;60.88;99324.26;27336;1216;3026015;-73
2021/10/23 06:56:57;;;;;;;37.80;21.40;;;;;;;13.64;61.21;99328.80;27276;1215;3053001;-77
2021/10/23 06:59:26;;;;;;;44.30;21.80;;;;;;;13.47;61.88;99334.61;27297;1216;3026001;-74
2021/10/23 07:01:56;;;;;;;50.00;21.60;;;;;;;13.39;61.93;99323.58;27348;1216;3026465;-71
2021/10/23 07:04:25;;;;;;;44.90;22.70;;;;;;;13.33;59.81;99322.08;27298;1217;3050304;-65
2021/10/23 07:06:54;;;;;;;42.10;20.60;;;;;;;13.38;59.70;99316.64;27252;1217;3026450;-74
2021/10/23 07:09:22;;;;;;;57.00;23.70;;;;;;;13.47;59.19;99316.69;27347;1217;3054395;-70
2021/10/23 07:12:11;;;;;;;56.10;23.30;;;;;;;13.48;60.45;99319.65;27308;1218;3051336;-68
2021/10/23 07:14:41;;;;;;;54.20;24.60;;;;;;;13.49;60.16;99317.41;27256;1217;3025931;-77
2021/10/23 07:17:30;;;;;;;65.70;29.50;;;;;;;13.51;60.52;99316.41;27294;1217;3050716;-66
2021/10/23 07:19:59;;;;;;;76.60;27.70;;;;;;;13.53;60.52;99317.30;27234;1215;3029255;-71
2021/10/23 07:22:28;;;;;;;62.70;28.20;;;;;;;13.57;60.22;99306.96;27248;1216;3070212;-67
2021/10/23 07:25:10;;;;;;;66.90;28.70;;;;;;;13.64;59.42;99308.22;27244;1215;3048867;-68
2021/10/23 07:27:39;;;;;;;46.50;22.30;;;;;;;13.68;59.13;99314.39;27303;1216;3027984;-74
2021/10/23 07:30:09;;;;;;;62.40;27.60;;;;;;;13.68;58.82;99335.17;27274;1216;3067404;-68
2021/10/23 07:32:39;;;;;;;56.80;24.30;;;;;;;13.61;59.05;99349.58;27322;1216;3026078;-70
2021/10/23 07:35:09;;;;;;;58.50;25.00;;;;;;;13.48;59.67;99352.54;27285;1216;3026611;-73
2021/10/23 07:37:38;;;;;;;55.00;25.30;;;;;;;13.36;60.10;99347.23;27270;1216;3026030;-67
2021/10/23 07:40:09;;;;;;;60.50;24.00;;;;;;;13.35;60.48;99352.95;27258;1216;3026187;-68
2021/10/23 07:42:39;;;;;;;45.80;22.60;;;;;;;13.24;61.26;99361.27;27301;1216;3028068;-67
2021/10/23 07:45:13;;;;;;;51.10;24.50;;;;;;;13.31;61.82;99368.85;27229;1216;3053540;-74
2021/10/23 07:47:47;;;;;;;;;;;;;;;13.24;62.98;99364.24;27297;1216;3053940;-72
2021/10/23 07:50:16;;;;;;;55.20;26.50;;;;;;;13.19;63.12;99369.39;27238;1216;3026195;-74
2021/10/23 07:52:46;;;;;;;42.40;21.90;;;;;;;13.00;63.84;99379.71;27271;1216;3051709;-73
2021/10/23 07:55:15;;;;;;;54.20;25.50;;;;;;;13.06;63.47;99386.10;27306;1216;3026038;-69
2021/10/23 07:57:44;;;;;;;61.50;26.00;;;;;;;13.07;63.05;99386.97;27276;1216;3026146;-67
2021/10/23 08:00:13;;;;;;;48.70;22.80;;;;;;;13.03;63.20;99380.02;27302;1216;3027030;-64
2021/10/23 08:02:52;;;;;;;60.00;25.70;;;;;;;13.10;62.58;99384.09;27284;1216;3050351;-71
2021/10/23 08:05:22;;;;;;;48.20;23.90;;;;;;;13.07;61.55;99388.36;27270;1216;3070589;-67
2021/10/23 08:07:51;;;;;;;47.70;23.10;;;;;;;13.14;60.97;99385.41;27248;1216;3025910;-69
2021/10/23 08:10:24;;;;;;;54.20;23.90;;;;;;;13.24;60.88;99389.59;27227;1216;3027193;-74
2021/10/23 08:13:06;;;;;;;57.40;22.00;;;;;;;13.32;60.02;99382.88;27255;1216;3070976;-66
2021/10/23 08:15:54;;;;;;;40.70;20.60;;;;;;;13.39;59.35;99386.39;27337;1216;3049373;-70
2021/10/23 08:18:24;;;;;;;53.00;21.70;;;;;;;13.51;58.28;99391.17;27266;1216;3027596;-78
2021/10/23 08:21:08;;;;;;;50.90;22.40;;;;;;;13.55;57.35;99393.14;27253;1216;3070935;-77
2021/10/23 08:23:37;;;;;;;51.00;21.60;;;;;;;13.63;56.60;99382.55;27275;1216;3026675;-71
2021/10/23 08:26:07;;;;;;;57.30;20.80;;;;;;;13.71;56.11;99376.15;27237;1216;3052118;-69
2021/10/23 08:28:37;;;;;;;49.70;20.00;;;;;;;13.81;55.95;99374.17;27208;1216;3026515;-69
2021/10/23 08:31:06;;;;;;;52.90;19.70;;;;;;;13.91;55.69;99371.11;27255;1216;3027123;-70
2021/10/23 08:33:35;;;;;;;44.10;20.70;;;;;;;14.02;55.88;99372.98;27282;1216;3026177;-71
2021/10/23 08:36:04;;;;;;;57.90;21.50;;;;;;;14.09;55.64;99370.14;27274;1216;3066142;-74
2021/10/23 08:38:52;;;;;;;42.50;19.70;;;;;;;14.14;55.40;99369.19;27295;1215;3049302;-67
2021/10/23 08:41:23;;;;;;;50.00;19.20;;;;;;;14.18;54.15;99363.74;27270;1215;3026295;-66
2021/10/23 08:43:53;;;;;;;48.90;18.70;;;;;;;14.26;54.19;99359.27;27272;1216;3026277;-73
2021/10/23 08:46:24;;;;;;;61.10;24.40;;;;;;;14.31;54.09;99356.46;27280;1215;3025839;-67
2021/10/23 08:48:54;;;;;;;64.20;22.00;;;;;;;14.33;53.54;99356.30;27245;1216;3025777;-71
2021/10/23 08:51:23;;;;;;;56.30;21.20;;;;;;;14.46;53.85;99352.12;27257;1215;3028172;-69
2021/10/23 08:53:53;;;;;;;66.00;23.10;;;;;;;14.46;52.81;99351.23;27265;1215;3026886;-67
2021/10/23 08:56:21;;;;;;;53.70;20.30;;;;;;;14.47;53.13;99352.52;27259;1216;3028925;-67
2021/10/23 08:58:51;;;;;;;45.80;17.20;;;;;;;14.54;52.21;99359.55;27282;1216;3053070;-67
2021/10/23 09:01:40;;;;;;;45.80;19.00;;;;;;;14.60;51.38;99370.73;27268;1215;3053990;-68
2021/10/23 09:04:09;;;;;;;38.60;17.30;;;;;;;14.63;50.97;99383.73;27324;1212;3026122;-71
2021/10/23 09:07:09;;;;;;;50.00;17.30;;;;;;;14.65;50.61;99382.90;27276;1214;3055564;-71
2021/10/23 09:10:02;;;;;;;35.20;13.80;;;;;;;14.72;49.90;99379.54;27295;1215;3053806;-69
2021/10/23 09:12:34;;;;;;;36.10;12.80;;;;;;;14.74;47.67;99388.02;27274;1206;3070114;-69
2021/10/23 09:15:23;;;;;;;33.00;12.00;;;;;;;14.77;47.17;99384.77;27248;1215;3051608;-74
2021/10/23 09:17:53;;;;;;;33.00;10.90;;;;;;;14.68;45.84;99383.73;27291;1215;3028023;-72
2021/10/23 09:20:43;;;;;;;32.70;11.20;;;;;;;14.72;45.21;99387.30;27256;1216;3052476;-71
2021/10/23 09:23:19;;;;;;;29.20;11.10;;;;;;;14.75;45.07;99387.75;27344;1213;3026049;-68
2021/10/23 09:25:51;;;;;;;41.50;14.30;;;;;;;14.81;44.85;99391.19;27239;1214;3049123;-65
2021/10/23 09:28:28;;;;;;;42.00;14.00;;;;;;;14.89;44.93;99396.70;27261;1215;3026419;-65
2021/10/23 09:30:57;;;;;;;37.80;13.60;;;;;;;14.93;44.32;99394.27;27275;1215;3051378;-69
2021/10/23 09:33:27;;;;;;;43.40;14.00;;;;;;;14.98;44.29;99395.13;27305;1215;3027336;-65
2021/10/23 09:36:03;;;;;;;36.10;14.40;;;;;;;15.09;44.48;99391.56;27275;1206;3026408;-73
2021/10/23 09:38:34;;;;;;;47.10;14.70;;;;;;;15.21;44.50;99383.52;27237;1216;3052998;-72
2021/10/23 09:41:12;;;;;;;32.20;12.70;;;;;;;15.19;43.20;99385.52;27245;1216;3027481;-75
2021/10/23 09:43:47;;;;;;;43.10;17.30;;;;;;;15.24;43.87;99386.27;27241;1219;3051353;-76
2021/10/23 09:46:24;;;;;;;49.90;18.60;;;;;;;15.24;43.04;99382.06;27256;1216;3054467;-66
2021/10/23 09:49:13;;;;;;;38.70;14.30;;;;;;;15.21;43.11;99382.17;27242;1217;3052466;-70
2021/10/23 09:52:09;;;;;;;38.30;14.90;;;;;;;15.14;42.98;99386.73;27222;1216;3056179;-69
2021/10/23 09:55:10;;;;;;;49.70;18.80;;;;;;;15.22;43.64;99381.02;27244;1216;3049699;-63
2021/10/23 09:57:39;;;;;;;37.10;15.70;;;;;;;15.25;43.81;99390.66;27229;1216;3054713;-71
2021/10/23 10:00:11;;;;;;;39.60;15.20;;;;;;;15.28;43.76;99399.42;27294;1216;3027479;-67
2021/10/23 10:02:43;;;;;;;57.80;18.40;;;;;;;15.26;43.84;99398.34;27312;1216;3049722;-73
2021/10/23 10:05:29;;;;;;;38.30;16.20;;;;;;;15.23;43.82;99392.35;27216;1216;3054680;-70
2021/10/23 10:08:19;;;;;;;35.30;15.50;;;;;;;15.30;43.96;99393.05;27228;1216;3051409;-73
2021/10/23 10:10:48;;;;;;;50.00;16.30;;;;;;;15.33;43.77;99386.27;27223;1209;3026087;-70
2021/10/23 10:13:37;;;;;;;41.10;15.40;;;;;;;15.29;43.77;99386.48;27243;1216;3049075;-67
2021/10/23 10:16:07;;;;;;;31.50;12.80;;;;;;;15.34;43.70;99382.85;27234;1216;3027285;-69
2021/10/23 10:18:56;;;;;;;32.60;12.10;;;;;;;15.42;43.58;99388.58;27215;1218;3052499;-72
2021/10/23 10:21:26;;;;;;;34.00;11.50;;;;;;;15.41;43.74;99390.20;27239;1216;3026486;-68
2021/10/23 10:24:20;;;;;;;27.80;10.80;;;;;;;15.52;43.55;99380.17;27268;1217;3049421;-71
2021/10/23 10:27:07;;;;;;;;;;;;;;;15.54;43.77;99377.01;27256;1216;3052818;-72
2021/10/23 10:29:53;;;;;;;20.90;9.10;;;;;;;15.51;43.65;99371.64;27278;1216;3050963;-72
2021/10/23 10:32:32;;;;;;;33.50;14.00;;;;;;;15.51;43.59;99363.15;27249;1216;3067687;-71
2021/10/23 10:42:41;;;;;;;22.00;8.10;;;;;;;15.59;43.71;99364.54;27228;1216;3051577;-72
2021/10/23 10:44:14;;;;;;;22.90;8.90;;;;;;;15.72;43.72;99375.86;27275;1216;3054744;-72
2021/10/23 10:47:07;;;;;;;26.00;10.00;;;;;;;15.61;43.68;99374.61;27264;1216;3049613;-67
2021/10/23 10:49:53;;;;;;;23.80;9.90;;;;;;;15.61;43.59;99369.00;27300;1214;3054213;-68
2021/10/23 10:52:49;;;;;;;24.00;10.80;;;;;;;15.66;43.78;99373.53;27294;1216;3052219;-72
2021/10/23 10:55:19;;;;;;;26.80;8.90;;;;;;;15.70;43.99;99375.15;27264;1216;3069085;-70
2021/10/23 10:58:14;;;;;;;23.80;9.60;;;;;;;15.75;43.77;99376.69;27266;1216;3026395;-68
2021/10/23 11:00:52;;;;;;;24.60;10.50;;;;;;;15.81;43.66;99391.73;27219;1216;3054306;-67
2021/10/23 11:03:35;;;;;;;25.10;10.90;;;;;;;15.77;43.44;99387.61;27288;1214;3055066;-68
2021/10/23 11:06:33;;;;;;;24.70;8.80;;;;;;;15.82;43.27;99387.45;27301;1216;3056439;-73
2021/10/23 11:09:11;;;;;;;20.70;8.50;;;;;;;15.80;43.38;99395.50;27251;1215;3049126;-72
2021/10/23 11:11:43;;;;;;;28.00;8.10;;;;;;;15.68;43.12;99381.32;27288;1216;3052896;-67
2021/10/23 11:14:25;;;;;;;20.40;6.70;;;;;;;15.68;43.28;99378.67;27279;1215;3026252;-68
2021/10/23 11:17:15;;;;;;;22.10;7.00;;;;;;;15.57;42.36;99381.87;27245;1216;3071080;-71
2021/10/23 11:19:51;;;;;;;20.50;7.10;;;;;;;15.44;42.37;99390.16;27220;1215;3051291;-71
2021/10/23 11:22:34;;;;;;;30.60;7.60;;;;;;;15.49;42.48;99397.38;27264;1214;3053164;-70
2021/10/23 11:25:24;;;;;;;19.80;7.90;;;;;;;15.50;42.68;99403.11;27303;1215;3052508;-63
2021/10/23 11:28:10;;;;;;;26.20;8.50;;;;;;;15.61;42.62;99406.05;27307;1216;3058860;-72
2021/10/23 11:30:42;;;;;;;21.30;8.10;;;;;;;15.50;42.67;99402.58;27184;1214;3027646;-70
2021/10/23 11:33:16;;;;;;;23.10;8.00;;;;;;;15.51;42.84;99402.51;27250;1215;3026436;-70
2021/10/23 11:35:51;;;;;;;22.50;8.10;;;;;;;15.52;43.12;99412.77;27298;1215;3049780;-69